THY6TR LOWW-LTFM
Flight info
| Callsign | THY6TR |
|---|---|
| Flight time | N/A |
| Altitude | 37000 |
| Route | ARSIN DCT NALOX DCT BABIT DCT ETIDA T390 RILEX |
| Aircraft | B77W/H-SDE1E2E3FGHIJ3J4J5M1P1P2RWXYZ/LB1D1 |
Departure
| Time | 2026-04-26 18:37 |
|---|---|
| Airport | Vienna International Airport (LOWW) |
Arrival
| Time | N/A |
|---|---|
| Airport | İstanbul Airport (LTFM) |
| Time | Latitude | Longitude | Altitude | Speed | Heading |
|---|---|---|---|---|---|
| 2026-04-26 17:38 | 48.11859 | 16.55983 | 614 ft | 0 kts | 124° |
| 2026-04-26 18:24 | 48.11862 | 16.55977 | 632 ft | 3 kts | 126° |
| 2026-04-26 18:24 | 48.11880 | 16.55950 | 614 ft | 4 kts | 127° |
| 2026-04-26 18:24 | 48.11893 | 16.55925 | 629 ft | 4 kts | 142° |
| 2026-04-26 18:25 | 48.11914 | 16.55915 | 614 ft | 4 kts | 201° |
| 2026-04-26 18:25 | 48.11936 | 16.55931 | 634 ft | 2 kts | 206° |
| 2026-04-26 18:25 | 48.11937 | 16.55932 | 614 ft | 0 kts | 206° |
| 2026-04-26 18:28 | 48.11893 | 16.55900 | 620 ft | 8 kts | 206° |
| 2026-04-26 18:28 | 48.11857 | 16.55873 | 614 ft | 3 kts | 206° |
| 2026-04-26 18:28 | 48.11856 | 16.55873 | 614 ft | 0 kts | 206° |
| 2026-04-26 18:30 | 48.11850 | 16.55869 | 614 ft | 5 kts | 206° |
| 2026-04-26 18:31 | 48.11789 | 16.55824 | 628 ft | 11 kts | 206° |
| 2026-04-26 18:31 | 48.11726 | 16.55785 | 626 ft | 9 kts | 186° |
| 2026-04-26 18:31 | 48.11682 | 16.55833 | 622 ft | 8 kts | 119° |
| 2026-04-26 18:31 | 48.11645 | 16.55938 | 627 ft | 16 kts | 116° |
| 2026-04-26 18:32 | 48.11585 | 16.56121 | 629 ft | 22 kts | 116° |
| 2026-04-26 18:32 | 48.11521 | 16.56316 | 627 ft | 18 kts | 116° |
| 2026-04-26 18:32 | 48.11469 | 16.56476 | 625 ft | 16 kts | 116° |
| 2026-04-26 18:32 | 48.11426 | 16.56608 | 626 ft | 14 kts | 116° |
| 2026-04-26 18:33 | 48.11379 | 16.56751 | 625 ft | 17 kts | 116° |
| 2026-04-26 18:33 | 48.11321 | 16.56930 | 614 ft | 21 kts | 116° |
| 2026-04-26 18:33 | 48.11258 | 16.57125 | 627 ft | 17 kts | 116° |
| 2026-04-26 18:33 | 48.11200 | 16.57302 | 622 ft | 18 kts | 116° |
| 2026-04-26 18:34 | 48.11154 | 16.57444 | 626 ft | 14 kts | 116° |
| 2026-04-26 18:34 | 48.11110 | 16.57580 | 628 ft | 10 kts | 116° |
| 2026-04-26 18:34 | 48.11058 | 16.57642 | 619 ft | 6 kts | 176° |
| 2026-04-26 18:34 | 48.11037 | 16.57636 | 624 ft | 1 kts | 198° |
| 2026-04-26 18:36 | 48.11027 | 16.57631 | 614 ft | 9 kts | 200° |
| 2026-04-26 18:36 | 48.10933 | 16.57517 | 626 ft | 16 kts | 268° |
| 2026-04-26 18:36 | 48.11014 | 16.57229 | 626 ft | 59 kts | 296° |
| 2026-04-26 18:36 | 48.11321 | 16.56290 | 622 ft | 139 kts | 296° |
| 2026-04-26 18:37 | 48.11817 | 16.54726 | 816 ft | 178 kts | 297° |
| 2026-04-26 18:37 | 48.12331 | 16.53145 | 1868 ft | 164 kts | 298° |
| 2026-04-26 18:37 | 48.12509 | 16.51351 | 2362 ft | 191 kts | 259° |
| 2026-04-26 18:37 | 48.11744 | 16.49602 | 2621 ft | 223 kts | 216° |
| 2026-04-26 18:38 | 48.10252 | 16.48562 | 2879 ft | 252 kts | 201° |
| 2026-04-26 18:38 | 48.08532 | 16.47603 | 3385 ft | 270 kts | 198° |
| 2026-04-26 18:38 | 48.06656 | 16.47315 | 4125 ft | 274 kts | 173° |
| 2026-04-26 18:38 | 48.04742 | 16.47733 | 4836 ft | 282 kts | 173° |
| 2026-04-26 18:39 | 48.02778 | 16.48113 | 5044 ft | 287 kts | 174° |
| 2026-04-26 18:39 | 48.01463 | 16.48356 | 5155 ft | 288 kts | 174° |
| 2026-04-26 18:39 | 47.99464 | 16.48726 | 6029 ft | 289 kts | 176° |
| 2026-04-26 18:39 | 47.97488 | 16.49328 | 6917 ft | 295 kts | 165° |
| 2026-04-26 18:40 | 47.95567 | 16.50474 | 7798 ft | 299 kts | 159° |
| 2026-04-26 18:40 | 47.93662 | 16.51769 | 8672 ft | 303 kts | 158° |
| 2026-04-26 18:40 | 47.91101 | 16.53521 | 9856 ft | 308 kts | 158° |
| 2026-04-26 18:40 | 47.89774 | 16.54413 | 10377 ft | 311 kts | 158° |
| 2026-04-26 18:41 | 47.87723 | 16.55763 | 10748 ft | 335 kts | 159° |
| 2026-04-26 18:41 | 47.85523 | 16.57185 | 10947 ft | 363 kts | 159° |
| 2026-04-26 18:41 | 47.83119 | 16.58723 | 11288 ft | 386 kts | 159° |
| 2026-04-26 18:41 | 47.80615 | 16.60317 | 12097 ft | 396 kts | 159° |
| 2026-04-26 18:42 | 47.78057 | 16.61941 | 13126 ft | 403 kts | 158° |
| 2026-04-26 18:42 | 47.75460 | 16.63585 | 14181 ft | 409 kts | 158° |
| 2026-04-26 18:42 | 47.72822 | 16.65250 | 15206 ft | 412 kts | 158° |
| 2026-04-26 18:42 | 47.70168 | 16.66922 | 16200 ft | 416 kts | 158° |
| 2026-04-26 18:43 | 47.67512 | 16.68696 | 17151 ft | 422 kts | 153° |
| 2026-04-26 18:43 | 47.64990 | 16.70971 | 18093 ft | 428 kts | 146° |
| 2026-04-26 18:43 | 47.62639 | 16.73721 | 18981 ft | 433 kts | 138° |
| 2026-04-26 18:43 | 47.60428 | 16.76726 | 19797 ft | 437 kts | 137° |
| 2026-04-26 18:44 | 47.58176 | 16.79803 | 20630 ft | 442 kts | 138° |
| 2026-04-26 18:44 | 47.55896 | 16.82910 | 21462 ft | 446 kts | 138° |
| 2026-04-26 18:44 | 47.53597 | 16.86028 | 22254 ft | 451 kts | 139° |
| 2026-04-26 18:44 | 47.51260 | 16.89186 | 23026 ft | 456 kts | 139° |
| 2026-04-26 18:45 | 47.48891 | 16.92374 | 23787 ft | 461 kts | 139° |
| 2026-04-26 18:45 | 47.46530 | 16.95542 | 24375 ft | 467 kts | 139° |
| 2026-04-26 18:45 | 47.44108 | 16.98784 | 24993 ft | 472 kts | 139° |
| 2026-04-26 18:45 | 47.41664 | 17.02053 | 25594 ft | 476 kts | 139° |
| 2026-04-26 18:46 | 47.39195 | 17.05347 | 26190 ft | 480 kts | 139° |
| 2026-04-26 18:46 | 47.36700 | 17.08669 | 26762 ft | 485 kts | 139° |
| 2026-04-26 18:46 | 47.34182 | 17.12021 | 27334 ft | 489 kts | 139° |
| 2026-04-26 18:46 | 47.31644 | 17.15394 | 27895 ft | 493 kts | 139° |
| 2026-04-26 18:47 | 47.29080 | 17.18799 | 28399 ft | 498 kts | 139° |
| 2026-04-26 18:47 | 47.26495 | 17.22227 | 28933 ft | 503 kts | 139° |
| 2026-04-26 18:47 | 47.23881 | 17.25690 | 29428 ft | 507 kts | 139° |
| 2026-04-26 18:47 | 47.21240 | 17.29182 | 29906 ft | 511 kts | 139° |
| 2026-04-26 18:48 | 47.18623 | 17.32639 | 30331 ft | 514 kts | 139° |
| 2026-04-26 18:48 | 47.15950 | 17.36164 | 30686 ft | 517 kts | 139° |
| 2026-04-26 18:48 | 47.13265 | 17.39697 | 31152 ft | 517 kts | 139° |
| 2026-04-26 18:48 | 47.10580 | 17.43228 | 31699 ft | 515 kts | 140° |
| 2026-04-26 18:49 | 47.07915 | 17.46727 | 32212 ft | 514 kts | 140° |
| 2026-04-26 18:49 | 47.05246 | 17.50217 | 32633 ft | 515 kts | 140° |
| 2026-04-26 18:49 | 47.02553 | 17.53714 | 32858 ft | 520 kts | 140° |
| 2026-04-26 18:49 | 46.99812 | 17.57248 | 32892 ft | 527 kts | 140° |
| 2026-04-26 18:50 | 46.94206 | 17.64382 | 32974 ft | 538 kts | 141° |
| 2026-04-26 18:50 | 46.91358 | 17.67948 | 33203 ft | 538 kts | 141° |
| 2026-04-26 18:50 | 46.88495 | 17.71485 | 33590 ft | 536 kts | 142° |
| 2026-04-26 18:51 | 46.85674 | 17.74949 | 33951 ft | 534 kts | 142° |
| 2026-04-26 18:51 | 46.82822 | 17.78429 | 34199 ft | 535 kts | 142° |
| 2026-04-26 18:51 | 46.77017 | 17.85344 | 34340 ft | 539 kts | 143° |
| 2026-04-26 18:52 | 46.71098 | 17.92114 | 34480 ft | 542 kts | 144° |